Terminal Aerodrome Forecast
Issued by NWS Dodge City, KS

Home | Current Version | Previous Version | Text Only | Print | Product List | Glossary On
Versions: 1 2 3 4 5 6 7 8 9 10 11 12 13 14 15 16 17 18 19
000
FTUS43 KDDC 260524
TAFDDC
TAF
KDDC 260524Z 2606/2706 16009KT P6SM BKN090
     FM261100 27007KT P6SM BKN120
     FM261400 32012KT P6SM BKN200
     FM261500 35006KT P6SM SCT200=

USA.gov is the U.S. government's official web portal to all federal, state and local government web resources and services.